Tiempo atmosférico en la estación meteorológica de Aranjuez, Madrid (540 m.)



Fecha
DESCASC
Temp. máxima en grados centígrados (hora)
DESCASC
Temp. mínima en grados centígrados (hora)
DESCASC
Temp. media en grados centígrados
DESCASC
Racha de viento máxima en m/sg (hora)
DESCASC
Velocidad máxima media en intervalos de 10 minutos(hora)
DESCASC
Precipitaciones diarias en mm
DESCASC
Precipitaciones de 00:00 a 06:00 en mm
DESCASC
Precipitaciones de 06:00 a 12:00 en mm
DESCASC
Precipitaciones de 12:00 a 18:00 en mm
DESCASC
Precipitaciones de 18:00 a 24:00 en mm
DESCASC
23-06-2019 35.4 (16:50) 18.1 (06:50) 26.8 7.22 (15:30) 3.61 (04:40) 0 0 0 0 0
22-06-2019 33.2 (19:40) 13.9 (06:40) 23.6 6.94 (17:30) 2.5 (17:40) 0 0 0 0 0
21-06-2019 30.5 (17:00) 15.5 (07:10) 23 6.67 (16:20) 3.33 (23:30) 0 0 0 0 0
20-06-2019 29.9 (18:10) 12.2 (00:00) 21 8.33 (20:20) 3.89 (21:50) 0 0 0 0 0
19-06-2019 28.8 (16:30) 15 (00:00) 21.9 8.89 (16:30) 3.89 (17:20) 0 0 0 0 0
18-06-2019 31.9 (17:50) 13.8 (00:00) 22.8 9.72 (19:40) 4.72 (20:20) 0 0 0 0 0
17-06-2019 33.2 (19:00) 13.2 (00:00) 23.2 8.33 (16:00) 3.33 (08:40) 0 0 0 0 0
16-06-2019 31.4 (16:30) 9.3 (00:00) 20.3 6.39 (17:00) 3.61 (08:20) 0 0 0 0 0
15-06-2019 26.6 (19:40) 10.4 (00:00) 18.5 6.94 (12:50) 2.78 (00:20) 0 0 0 0 0
14-06-2019 26 (16:10) 14 (00:00) 20 10.83 (19:00) 4.17 (17:20) 0 0 0 0 0
13-06-2019 29.9 (19:20) 14.1 (00:00) 22 11.11 (03:50) 6.39 (04:20) 0 0 0 0 0
12-06-2019 27.2 (20:10) 4.5 (00:00) 15.9 -- (--) -- (--) 0 0 0 0 0
11-06-2019 22.8 (18:40) 12 (00:00) 17.4 -- (--) -- (--) 0 0 0 0 0
10-06-2019 27.5 (17:20) 9.3 (00:00) 18.4 -- (--) -- (--) 0 0 0 0 0
09-06-2019 28.4 (18:00) 10.3 (00:00) 19.3 -- (--) -- (--) 0 0 0 0 0
08-06-2019 30.9 (16:20) 6.3 (00:00) 18.6 -- (--) -- (--) 0 0 0 0 0
07-06-2019 23.4 (19:50) 10.9 (00:00) 17.1 -- (--) -- (--) 1.2 1 0.2 0 0
06-06-2019 26.3 (17:20) 6.7 (00:00) 16.5 -- (--) -- (--) 0 0 0 0 0
05-06-2019 23.4 (18:40) 12.9 (00:00) 18.1 -- (--) -- (--) 0 0 0 0 0
04-06-2019 30.5 (17:20) 13.8 (00:00) 22.2 -- (--) -- (--) 0 0 0 0 0
03-06-2019 34.5 (18:10) 17.7 (00:00) 26.1 -- (--) -- (--) 0 0 0 0 0
02-06-2019 34.9 (18:10) 16.8 (00:00) 25.9 -- (--) -- (--) 0 0 0 0 0
01-06-2019 33.9 (18:30) 13.3 (00:00) 23.6 -- (--) -- (--) 0 0 0 0 0
31-05-2019 32.7 (19:20) 13.6 (00:00) 23.2 -- (--) -- (--) 0 0 0 0 0
30-05-2019 31.1 (19:00) 9.5 (00:00) 20.3 -- (--) -- (--) 0 0 0 0 0
29-05-2019 28.1 (18:50) 9.9 (00:00) 19 -- (--) -- (--) 0 0 0 0 0
28-05-2019 28.3 (17:40) 12.3 (00:00) 20.3 -- (--) -- (--) 0 0 0 0 0
27-05-2019 31.1 (18:00) 9.7 (00:00) 20.4 -- (--) -- (--) 0 0 0 0 0
26-05-2019 28.7 (19:00) 8.1 (00:00) 18.4 -- (--) -- (--) 0 0 0 0 0

Gráficas

Temp. máximas Temp. mínimas Temp. medias Precipitaciones Rachas de viento máximas Velocidades máximas media en intervalos de 10 minutos

Datos horarios

Fecha y hora oficial Temperatura (ºC) Velocidad del viento (km/h) Dirección del viento Racha (km/h) Dirección de racha Precipitación (mm) Presión (hPa) Tendencia (hPa) Humedad (%)
2019-06-24 23:00:00 27.1 3 Oeste 12 Oeste 0 -- -- 41
2019-06-24 22:00:00 28.6 4 Oeste 9 Oeste 0 -- -- 38
2019-06-24 21:00:00 29.9 3 Sudoeste 15 Sudoeste 0 -- -- 37
2019-06-24 20:00:00 31.2 7 Oeste 20 Oeste 0 -- -- 35
2019-06-24 19:00:00 32.5 9 Oeste 21 Oeste 0 -- -- 33
2019-06-24 18:00:00 32.3 10 Sudoeste 40 Sudeste 0 -- -- 34
2019-06-24 17:00:00 32.4 4 Oeste 19 Este 0 -- -- 35
2019-06-24 16:00:00 30.6 3 Sur 15 Sudeste 0 -- -- 37
2019-06-24 15:00:00 30.5 3 Sudoeste 11 Sudoeste 0 -- -- 39
2019-06-24 14:00:00 29.8 3 Sur 18 Sudeste 0 -- -- 39
2019-06-24 13:00:00 28.1 4 Este 11 Sudeste 0 -- -- 42
2019-06-24 12:00:00 26.5 2 Sur 12 Sudoeste 0 -- -- 46
2019-06-24 11:00:00 25.3 5 Sudeste 12 Sudoeste 0 -- -- 47
2019-06-24 10:00:00 24.5 3 Sur 15 Sudeste 0 -- -- 45
2019-06-24 09:00:00 21.7 12 Sudeste 17 Sudeste 0 -- -- 47
2019-06-24 08:00:00 20.2 12 Sudeste 16 Sudeste 0 -- -- 48
2019-06-24 07:00:00 19.3 8 Este 12 Sudeste 0 -- -- 48
2019-06-24 06:00:00 19.9 6 Sudeste 13 Sudeste 0 -- -- 47
2019-06-24 05:00:00 20.7 9 Sudeste 19 Sudeste 0 -- -- 44
2019-06-24 04:00:00 22.2 10 Este 22 Sudeste 0 -- -- 41
2019-06-24 03:00:00 24 9 Sudeste 32 Sudeste 0 -- -- 40
2019-06-24 02:00:00 25.6 13 Sudeste 29 Sudeste 0 -- -- 37
2019-06-24 01:00:00 25.3 7 Este 13 Este 0 -- -- 36
2019-06-24 00:00:00 26.1 5 Este 10 Sudeste 0 -- -- 33
2019-06-23 23:00:00 28 5 Oeste 10 Oeste 0 -- -- 31
2019-06-23 22:00:00 30 3 Oeste 21 Noroeste 0 -- -- 30
2019-06-23 21:00:00 32.9 3 Sur 19 Sudeste 0 -- -- 29
2019-06-23 20:00:00 34.2 6 Sur 16 Sudeste 0 -- -- 29
2019-06-23 19:00:00 34.9 0 Calma 16 Sudoeste 0 -- -- 28
2019-06-23 18:00:00 35.2 3 Oeste 24 Noroeste 0 -- -- 27
2019-06-23 17:00:00 35.2 3 Oeste 22 Sur 0 -- -- 27
2019-06-23 16:00:00 34.3 9 Sudeste 26 Sudeste 0 -- -- 28
2019-06-23 15:00:00 33 6 Sur 17 Oeste 0 -- -- 29
2019-06-23 14:00:00 31.4 4 Sudoeste 16 Noroeste 0 -- -- 29
2019-06-23 13:00:00 30.1 6 Oeste 14 Sudoeste 0 -- -- 30
2019-06-23 12:00:00 28.6 4 Sudoeste 13 Oeste 0 -- -- 34
2019-06-23 11:00:00 26 6 Oeste 15 Oeste 0 -- -- 38
2019-06-23 10:00:00 24.8 5 Oeste 15 Sudeste 0 -- -- 40
2019-06-23 09:00:00 22.2 12 Sudeste 17 Sudeste 0 -- -- 55
2019-06-23 08:00:00 19.7 10 Sudeste 14 Este 0 -- -- 61
2019-06-23 07:00:00 18.2 9 Sudeste 16 Sudeste 0 -- -- 63
2019-06-23 06:00:00 19.3 6 Sudeste 12 Sudeste 0 -- -- 59
2019-06-23 05:00:00 20.3 8 Este 20 Sudeste 0 -- -- 57
2019-06-23 04:00:00 20.8 10 Este 16 Este 0 -- -- 55
2019-06-23 03:00:00 21.4 8 Este 15 Sudeste 0 -- -- 47
2019-06-23 02:00:00 20.3 8 Este 15 Este 0 -- -- 38
2019-06-23 01:00:00 20.1 5 Sudeste 8 Sudeste 0 -- -- 37
2019-06-23 00:00:00 20.7 0 Calma 6 Este 0 -- -- 34
2019-06-22 23:00:00 24 0 Calma 9 Noroeste 0 -- -- 32
2019-06-22 22:00:00 26.8 6 Noroeste 9 Noroeste 0 -- -- 30
2019-06-22 21:00:00 30.3 2 Oeste 11 Oeste 0 -- -- 28
2019-06-22 20:00:00 32.1 5 Oeste 19 Oeste 0 -- -- 26
2019-06-22 19:00:00 32.4 7 Oeste 21 Oeste 0 -- -- 26
2019-06-22 18:00:00 32.2 5 Oeste 25 Oeste 0 -- -- 27
2019-06-22 17:00:00 32.3 8 Oeste 21 Noroeste 0 -- -- 29
2019-06-22 16:00:00 32.2 6 Sur 21 Sur 0 -- -- 29
2019-06-22 15:00:00 31.3 4 Sudoeste 22 Noroeste 0 -- -- 32
2019-06-22 14:00:00 30.5 8 Sudeste 21 Sur 0 -- -- 35
2019-06-22 13:00:00 29.3 5 Sudeste 21 Sudeste 0 -- -- 42
2019-06-22 12:00:00 26.7 8 Este 18 Este 0 -- -- 49
2019-06-22 11:00:00 24.4 6 Este 15 Este 0 -- -- 56
2019-06-22 10:00:00 22 7 Este 14 Sudeste 0 -- -- 62
2019-06-22 09:00:00 19 0 Calma -- -- 0 -- -- 68
2019-06-22 08:00:00 15.7 0 Calma -- -- 0 -- -- 76
2019-06-22 07:00:00 14.2 0 Calma -- -- 0 -- -- 77
2019-06-22 06:00:00 14.4 0 Calma 5 Norte 0 -- -- 71
2019-06-22 05:00:00 15.3 0 Calma 6 Este 0 -- -- 66
2019-06-22 04:00:00 17.2 0 Calma 5 Nordeste 0 -- -- 59
2019-06-22 03:00:00 19.5 5 Este 13 Este 0 -- -- 53
2019-06-22 02:00:00 20.8 5 Nordeste 11 Nordeste 0 -- -- 50
2019-06-22 01:00:00 21.7 3 Este 10 Nordeste 0 -- -- 43
2019-06-22 00:00:00 23.7 8 Nordeste 24 Norte 0 -- -- 40
2019-06-21 23:00:00 24.4 11 Norte 19 Norte 0 -- -- 37
2019-06-21 22:00:00 25.1 6 Noroeste 8 Noroeste 0 -- -- 33
2019-06-21 21:00:00 29 3 Sudoeste 14 Oeste 0 -- -- 29
2019-06-21 20:00:00 30 6 Sudoeste 17 Sudoeste 0 -- -- 29
2019-06-21 19:00:00 30.2 7 Oeste 23 Noroeste 0 -- -- 30
2019-06-21 18:00:00 30.2 6 Sudoeste 23 Noroeste 0 -- -- 31
2019-06-21 17:00:00 29.8 6 Sudoeste 24 Oeste 0 -- -- 32
2019-06-21 16:00:00 29.4 6 Oeste 23 Sudoeste 0 -- -- 35
2019-06-21 15:00:00 28.5 8 Sudoeste 21 Oeste 0 -- -- 39
2019-06-21 14:00:00 28.1 6 Oeste 20 Oeste 0 -- -- 39
2019-06-21 13:00:00 26.9 5 Oeste 22 Noroeste 0 -- -- 44
2019-06-21 12:00:00 25.6 6 Noroeste 13 Noroeste 0 -- -- 49
2019-06-21 11:00:00 23.9 3 Oeste 12 Noroeste 0 -- -- 54
2019-06-21 10:00:00 22.5 3 Este 9 Sudeste 0 -- -- 57
2019-06-21 09:00:00 20.7 3 Norte 11 Nordeste 0 -- -- 62
2019-06-21 08:00:00 17.8 0 Calma 5 Oeste 0 -- -- 69
2019-06-21 07:00:00 15.6 2 Oeste 10 Oeste 0 -- -- 68
2019-06-21 06:00:00 16.2 4 Noroeste 8 Oeste 0 -- -- 62
2019-06-21 05:00:00 18.1 2 Oeste 8 Oeste 0 -- -- 58
2019-06-21 04:00:00 19 4 Oeste 12 Oeste 0 -- -- 56
2019-06-21 03:00:00 19.1 3 Noroeste 7 Oeste 0 -- -- 52
2019-06-21 02:00:00 21.2 4 Noroeste 12 Noroeste 0 -- -- 49
2019-06-21 01:00:00 21.8 3 Oeste 14 Oeste 0 -- -- 47
2019-06-21 00:00:00 23.3 5 Oeste 20 Oeste 0 -- -- 43
2019-06-20 23:00:00 24.2 10 Noroeste 21 Oeste 0 -- -- 43
2019-06-20 22:00:00 25.4 14 Noroeste 26 Noroeste 0 -- -- 40
2019-06-20 21:00:00 26.9 10 Oeste 30 Oeste 0 -- -- 39
2019-06-20 20:00:00 27.9 7 Oeste 25 Sudoeste 0 -- -- 37
2019-06-20 19:00:00 29.7 10 Oeste 25 Oeste 0 -- -- 35
2019-06-20 18:00:00 29.5 9 Oeste 24 Oeste 0 -- -- 36
2019-06-20 17:00:00 29.4 8 Sudoeste 22 Noroeste 0 -- -- 39
2019-06-20 16:00:00 28.2 8 Sudoeste 22 Oeste 0 -- -- 39
2019-06-20 15:00:00 26.8 8 Oeste 26 Sudoeste 0 -- -- 41
2019-06-20 14:00:00 26.5 8 Oeste 24 Sudoeste 0 -- -- 43
2019-06-20 13:00:00 26.1 8 Sudoeste 19 Sudoeste 0 -- -- 46
2019-06-20 12:00:00 24.4 6 Sudoeste 18 Sudoeste 0 -- -- 49
2019-06-20 11:00:00 24.2 5 Sudoeste 14 Oeste 0 -- -- 53
2019-06-20 10:00:00 21.8 5 Sudoeste 13 Oeste 0 -- -- 59
2019-06-20 09:00:00 19.5 2 Sudeste 6 Este 0 -- -- 63
2019-06-20 08:00:00 15.8 5 Sudeste 8 Sudeste 0 -- -- 69
2019-06-20 07:00:00 12.4 0 Calma 4 Noroeste 0 -- -- 73
2019-06-20 06:00:00 12.9 0 Calma 4 Norte 0 -- -- 70
2019-06-20 05:00:00 13.8 2 Este 6 Este 0 -- -- 67
2019-06-20 04:00:00 15.2 0 Calma 6 Este 0 -- -- 63
2019-06-20 03:00:00 16.2 0 Calma 3 Este 0 -- -- 58
2019-06-20 02:00:00 18.2 0 Calma 7 Noroeste 0 -- -- 54
2019-06-20 01:00:00 18.7 4 Noroeste 6 Oeste 0 -- -- 50
2019-06-20 00:00:00 21 3 Oeste 9 Oeste 0 -- -- 48
2019-06-19 23:00:00 22.3 4 Oeste 16 Oeste 0 -- -- 46
2019-06-19 22:00:00 23.8 9 Oeste 25 Oeste 0 -- -- 43
2019-06-19 21:00:00 25.6 11 Oeste 27 Oeste 0 -- -- 42
2019-06-19 20:00:00 27.2 9 Oeste 26 Oeste 0 -- -- 41
2019-06-19 19:00:00 28 11 Oeste 28 Oeste 0 -- -- 40
2019-06-19 18:00:00 28.5 11 Oeste 29 Oeste 0 -- -- 40
2019-06-19 17:00:00 28.1 12 Oeste 32 Oeste 0 -- -- 41
2019-06-19 16:00:00 27.7 12 Oeste 30 Noroeste 0 -- -- 42
2019-06-19 15:00:00 27.4 9 Oeste 24 Noroeste 0 -- -- 43
2019-06-19 14:00:00 25.9 12 Oeste 28 Sudoeste 0 -- -- 46
2019-06-19 13:00:00 25.1 10 Oeste 29 Oeste 0 -- -- 49
2019-06-19 12:00:00 23.7 8 Oeste 24 Oeste 0 -- -- 52
2019-06-19 11:00:00 22.5 9 Oeste 23 Sudoeste 0 -- -- 57
2019-06-19 10:00:00 21.1 8 Oeste 20 Oeste 0 -- -- 59
2019-06-19 09:00:00 19.6 5 Oeste 12 Oeste 0 -- -- 62
2019-06-19 08:00:00 18.1 0 Calma 9 Oeste 0 -- -- 66
2019-06-19 07:00:00 15.2 3 Noroeste 6 Noroeste 0 -- -- 71
2019-06-19 06:00:00 16.7 3 Oeste 8 Oeste 0 -- -- 70
2019-06-19 05:00:00 16.3 0 Calma 5 Noroeste 0 -- -- 66
2019-06-19 04:00:00 16.5 0 Calma 4 Sudoeste 0 -- -- 60
2019-06-19 03:00:00 18.1 2 Este 4 Noroeste 0 -- -- 56
2019-06-19 02:00:00 19.2 0 Calma 5 Oeste 0 -- -- 52
2019-06-19 01:00:00 20 0 Calma 5 Noroeste 0 -- -- 50
2019-06-19 00:00:00 21.1 0 Calma 9 Noroeste 0 -- -- 47
2019-06-18 23:00:00 23.3 6 Noroeste 22 Noroeste 0 -- -- 44
2019-06-18 22:00:00 24.8 13 Noroeste 28 Noroeste 0 -- -- 39
2019-06-18 21:00:00 27.6 14 Noroeste 34 Oeste 0 -- -- 29
2019-06-18 20:00:00 29.7 14 Oeste 35 Oeste 0 -- -- 23
2019-06-18 19:00:00 31.3 11 Oeste 32 Noroeste 0 -- -- 24
2019-06-18 18:00:00 31.5 10 Oeste 31 Oeste 0 -- -- 26
2019-06-18 17:00:00 31.4 13 Sudoeste 33 Sudoeste 0 -- -- 27
2019-06-18 16:00:00 30.9 11 Oeste 32 Oeste 0 -- -- 29
2019-06-18 15:00:00 30.4 12 Sudoeste 33 Oeste 0 -- -- 29
2019-06-18 14:00:00 29.4 11 Sudoeste 31 Sudoeste 0 -- -- 31
2019-06-18 13:00:00 28 12 Sudoeste 29 Sudoeste 0 -- -- 33
2019-06-18 12:00:00 26.9 9 Oeste 26 Oeste 0 -- -- 31
2019-06-18 11:00:00 26 7 Oeste 19 Oeste 0 -- -- 32
2019-06-18 10:00:00 23.5 6 Oeste 11 Oeste 0 -- -- 36
2019-06-18 09:00:00 22.1 2 Nordeste 10 Este 0 -- -- 37
2019-06-18 08:00:00 17 0 Calma -- -- 0 -- -- 42
2019-06-18 07:00:00 14 0 Calma -- -- 0 -- -- 41
2019-06-18 06:00:00 14.9 0 Calma -- -- 0 -- -- 41
2019-06-18 05:00:00 16.8 0 Calma 6 Norte 0 -- -- 38
2019-06-18 04:00:00 18.8 4 Sudeste 8 Este 0 -- -- 37
2019-06-18 03:00:00 18.8 0 Calma -- -- 0 -- -- 35
2019-06-18 02:00:00 20.2 0 Calma -- -- 0 -- -- 34
2019-06-18 01:00:00 21.9 0 Calma -- -- 0 -- -- 32
2019-06-18 00:00:00 23.8 0 Calma 5 Sudoeste 0 -- -- 30
2019-06-17 23:00:00 26.6 3 Noroeste 12 Noroeste 0 -- -- 28
2019-06-17 22:00:00 27.7 0 Calma 8 Oeste 0 -- -- 27
2019-06-17 21:00:00 29.8 4 Oeste 22 Oeste 0 -- -- 25
2019-06-17 20:00:00 32.9 7 Oeste 22 Sudoeste 0 -- -- 24
2019-06-17 19:00:00 33 7 Oeste 23 Oeste 0 -- -- 24
2019-06-17 18:00:00 32.4 7 Sudoeste 20 Oeste 0 -- -- 25
2019-06-17 17:00:00 32.5 5 Sudoeste 23 Sur 0 -- -- 25
2019-06-17 16:00:00 31.8 6 Sur 30 Sudoeste 0 -- -- 26
2019-06-17 15:00:00 30.5 10 Noroeste 23 Oeste 0 -- -- 28
2019-06-17 14:00:00 29.4 7 Oeste 21 Oeste 0 -- -- 31
2019-06-17 13:00:00 28.7 5 Sudoeste 19 Oeste 0 -- -- 33
2019-06-17 12:00:00 26.1 4 Sudoeste 11 Sudoeste 0 -- -- 40
2019-06-17 11:00:00 24.2 4 Oeste 9 Oeste 0 -- -- 42
2019-06-17 10:00:00 22.4 4 Sudeste 15 Este 0 -- -- 47
2019-06-17 09:00:00 18.2 11 Sudeste 15 Sudeste 0 -- -- 60
2019-06-17 08:00:00 15 10 Sudeste 13 Sudeste 0 -- -- 67
2019-06-17 07:00:00 13.5 9 Este 14 Este 0 -- -- 69
2019-06-17 06:00:00 14 6 Este 12 Sudeste 0 -- -- 66
2019-06-17 05:00:00 15.2 8 Este 14 Este 0 -- -- 62
2019-06-17 04:00:00 16.2 8 Este 13 Este 0 -- -- 57
2019-06-17 03:00:00 18.4 8 Este 12 Este 0 -- -- 50
2019-06-17 02:00:00 19.5 9 Este 15 Este 0 -- -- 45
2019-06-17 01:00:00 21.4 6 Este 17 Este 0 -- -- 37
2019-06-17 00:00:00 22.5 9 Este 21 Sudeste 0 -- -- 32
2019-06-16 23:00:00 20.9 3 Oeste 5 Oeste 0 -- -- 32
2019-06-16 22:00:00 24.4 3 Este 8 Este 0 -- -- 30
2019-06-16 21:00:00 27.4 0 Calma 9 Este 0 -- -- 28
2019-06-16 20:00:00 29.2 5 Sudeste 9 Este 0 -- -- 26
2019-06-16 19:00:00 29.7 4 Sur 13 Sudoeste 0 -- -- 26
2019-06-16 18:00:00 29.8 6 Oeste 19 Sur 0 -- -- 26
2019-06-16 17:00:00 30.3 5 Sudoeste 23 Oeste 0 -- -- 26
2019-06-16 16:00:00 30.4 6 Sur 18 Sudoeste 0 -- -- 27
2019-06-16 15:00:00 29.2 6 Sudeste 22 Sudeste 0 -- -- 30
2019-06-16 14:00:00 28.7 2 Norte 15 Sudoeste 0 -- -- 33
2019-06-16 13:00:00 27.6 3 Sur 17 Sur 0 -- -- 36
2019-06-16 12:00:00 25.6 5 Este 16 Sudeste 0 -- -- 36
2019-06-16 11:00:00 23.6 6 Sudeste 15 Sudeste 0 -- -- 38
2019-06-16 10:00:00 20.5 8 Este 14 Este 0 -- -- 41
2019-06-16 09:00:00 16.1 6 Sudeste 20 Sudeste 0 -- -- 44
2019-06-16 08:00:00 11.9 2 Sudeste 13 Sudeste 0 -- -- 51
2019-06-16 07:00:00 9.7 4 Este 10 Este 0 -- -- 51
2019-06-16 06:00:00 10 4 Este 10 Este 0 -- -- 47
2019-06-16 05:00:00 11.2 4 Este 10 Este 0 -- -- 44
2019-06-16 04:00:00 12.5 6 Este 12 Este 0 -- -- 44
2019-06-16 03:00:00 12.4 7 Este 11 Este 0 -- -- 42
2019-06-16 02:00:00 11.9 2 Sudeste 4 Sudeste 0 -- -- 40
2019-06-16 01:00:00 15.6 4 Este 8 Este 0 -- -- 37
2019-06-16 00:00:00 15.4 0 Calma 8 Sudeste 0 -- -- 35
2019-06-15 23:00:00 16.5 0 Calma 5 Norte 0 -- -- 33
2019-06-15 22:00:00 20.2 3 Norte 6 Oeste 0 -- -- 29
2019-06-15 21:00:00 26 4 Oeste 10 Oeste 0 -- -- 27
2019-06-15 20:00:00 26.2 5 Oeste 15 Oeste 0 -- -- 28
2019-06-15 19:00:00 26 5 Oeste 18 Sudoeste 0 -- -- 29
2019-06-15 18:00:00 25.6 8 Sudoeste 18 Oeste 0 -- -- 31
2019-06-15 17:00:00 25.4 3 Sudoeste 20 Noroeste 0 -- -- 33
2019-06-15 16:00:00 24.5 9 Oeste 22 Sudoeste 0 -- -- 35
2019-06-15 15:00:00 23.7 5 Oeste 21 Sudoeste 0 -- -- 38
2019-06-15 14:00:00 22.5 6 Oeste 23 Sudoeste 0 -- -- 40
2019-06-15 13:00:00 21.6 6 Oeste 25 Oeste 0 -- -- 42
2019-06-15 12:00:00 20.3 4 Sudoeste 14 Sudoeste 0 -- -- 45
2019-06-15 11:00:00 18.7 6 Oeste 16 Oeste 0 -- -- 50
2019-06-15 10:00:00 17.1 4 Sudoeste 12 Oeste 0 -- -- 56
2019-06-15 09:00:00 14.9 5 Sudoeste 10 Oeste 0 -- -- 62
2019-06-15 08:00:00 12.8 5 Oeste 10 Oeste 0 -- -- 67
2019-06-15 07:00:00 10.5 3 Oeste 8 Oeste 0 -- -- 70
2019-06-15 06:00:00 11.3 2 Oeste 8 Oeste 0 -- -- 66
2019-06-15 05:00:00 12 4 Oeste 10 Noroeste 0 -- -- 61
2019-06-15 04:00:00 12.8 5 Oeste 14 Sudoeste 0 -- -- 57
2019-06-15 03:00:00 13.4 5 Oeste 13 Oeste 0 -- -- 51
2019-06-15 02:00:00 14.7 5 Oeste 19 Oeste 0 -- -- 47
2019-06-15 01:00:00 16.3 6 Oeste 23 Oeste 0 -- -- 44
2019-06-15 00:00:00 17.4 7 Oeste 22 Oeste 0 -- -- 44
2019-06-14 23:00:00 18.1 6 Oeste 20 Oeste 0 -- -- 41
2019-06-14 22:00:00 19.7 7 Sudoeste 25 Sudoeste 0 -- -- 34
2019-06-14 21:00:00 22 8 Oeste 27 Oeste 0 -- -- 31
2019-06-14 20:00:00 23.7 13 Oeste 32 Oeste 0 -- -- 30
2019-06-14 19:00:00 24.8 15 Oeste 39 Noroeste 0 -- -- 30
2019-06-14 18:00:00 25.7 10 Oeste 33 Noroeste 0 -- -- 30
2019-06-14 17:00:00 25.2 14 Oeste 33 Noroeste 0 -- -- 30
2019-06-14 16:00:00 25.7 12 Oeste 35 Oeste 0 -- -- 31
2019-06-14 15:00:00 25.1 13 Oeste 34 Oeste 0 -- -- 32
2019-06-14 14:00:00 24.8 13 Oeste 35 Oeste 0 -- -- 36
2019-06-14 13:00:00 23.8 11 Oeste 29 Oeste 0 -- -- 39
2019-06-14 12:00:00 22.8 8 Oeste 24 Noroeste 0 -- -- 42
2019-06-14 11:00:00 21.4 8 Sudoeste 23 Sudoeste 0 -- -- 46
2019-06-14 10:00:00 19.4 7 Oeste 18 Oeste 0 -- -- 49
2019-06-14 09:00:00 17.5 5 Oeste 14 Oeste 0 -- -- 53
2019-06-14 08:00:00 16.1 2 Sudoeste 8 Sudoeste 0 -- -- 54
2019-06-14 07:00:00 14.7 3 Sudoeste 12 Oeste 0 -- -- 54
2019-06-14 06:00:00 15.9 3 Oeste 9 Oeste 0 -- -- 63
2019-06-14 05:00:00 17.1 3 Sudoeste 9 Sudeste 0 -- -- 63
2019-06-14 04:00:00 18.1 6 Sudeste 10 Sudeste 0 -- -- 60
2019-06-14 03:00:00 18.5 3 Sudeste 8 Este 0 -- -- 57
2019-06-14 02:00:00 17.9 0 Calma 12 Este 0 -- -- 38
2019-06-14 01:00:00 19.1 0 Calma 8 Este 0 -- -- 32
2019-06-14 00:00:00 20.8 4 Este 9 Sudeste 0 -- -- 31
2019-06-13 23:00:00 22.4 4 Noroeste 19 Noroeste 0 -- -- 28
2019-06-13 22:00:00 24.3 13 Noroeste 26 Noroeste 0 -- -- 26
2019-06-13 21:00:00 26.8 12 Noroeste 25 Noroeste 0 -- -- 26
2019-06-13 20:00:00 28.3 9 Oeste 27 Noroeste 0 -- -- 25
2019-06-13 19:00:00 29.8 8 Oeste 28 Oeste 0 -- -- 25
2019-06-13 18:00:00 29.5 8 Sudoeste 27 Oeste 0 -- -- 26
2019-06-13 17:00:00 29.4 11 Sudoeste 27 Oeste 0 -- -- 26
2019-06-13 16:00:00 28.7 9 Oeste 32 Sudoeste 0 -- -- 28
2019-06-13 15:00:00 28.1 8 Sudoeste 31 Sur 0 -- -- 29
2019-06-13 14:00:00 27.4 8 Sur 24 Sur 0 -- -- 32
2019-06-13 13:00:00 26.4 9 Sur 27 Sur 0 -- -- 34
2019-06-13 12:00:00 24.3 7 Sur 19 Sudeste 0 -- -- 39
2019-06-13 11:00:00 23.2 6 Sudeste 21 Sudeste 0 -- -- 44
2019-06-13 10:00:00 21.1 10 Sudeste 25 Sudeste 0 -- -- 53
2019-06-13 09:00:00 18.2 9 Sudeste 20 Sudeste 0 -- -- 66
2019-06-13 08:00:00 15.8 15 Este 24 Sudeste 0 -- -- 73
2019-06-13 07:00:00 14.4 12 Este 26 Sudeste 0 -- -- 77
2019-06-13 06:00:00 14.5 19 Sudeste 30 Sudeste 0 -- -- 76
2019-06-13 05:00:00 14.6 18 Sudeste 34 Sudeste 0 -- -- 73
2019-06-13 04:00:00 15.2 22 Este 40 Este 0 -- -- 66
2019-06-13 03:00:00 16 17 Sudeste 33 Sudeste 0 -- -- 60
2019-06-13 02:00:00 17.3 19 Sudeste 34 Sudeste 0 -- -- 56
2019-06-13 01:00:00 15.1 8 Este 20 Sudeste 0 -- -- 38
2019-06-13 00:00:00 14.9 3 Este 8 Sudeste 0 -- -- 34
2019-06-12 23:00:00 16.7 0 Calma 7 Noroeste 0 -- -- 31
2019-06-12 22:00:00 20.7 5 Norte 11 Oeste 0 -- -- 27
2019-06-12 21:00:00 26.1 4 Sudoeste 14 Norte 0 -- -- 26
2019-06-12 20:00:00 27.1 4 Norte 13 Noroeste 0 -- -- 26
2019-06-12 19:00:00 26.7 4 Nordeste 16 Oeste 0 -- -- 26
2019-06-12 18:00:00 26.4 6 Noroeste 22 Noroeste 0 -- -- 27
2019-06-12 17:00:00 25.9 8 Noroeste 22 Oeste 0 -- -- 27
2019-06-12 16:00:00 25.3 3 Norte 29 Sudeste 0 -- -- 28
2019-06-12 15:00:00 24.4 6 Noroeste 21 Sudoeste 0 -- -- 29
2019-06-12 14:00:00 23.2 4 Sudeste 20 Sur 0 -- -- 31
2019-06-12 13:00:00 22.5 7 Sur 18 Sudoeste 0 -- -- 34
2019-06-12 12:00:00 21.3 10 Sudeste 19 Sudeste 0 -- -- 36
2019-06-12 11:00:00 18.7 3 Sudeste 12 Sudeste 0 -- -- 45
2019-06-12 10:00:00 15.8 4 Este 10 Sudeste 0 -- -- 48
2019-06-12 09:00:00 11.8 4 Sudeste 9 Sudeste 0 -- -- 52
2019-06-12 08:00:00 8 -- -- -- -- 0 -- -- 58
2019-06-12 07:00:00 4.6 -- -- -- -- 0 -- -- 55
2019-06-12 06:00:00 5.1 -- -- -- -- 0 -- -- 52
2019-06-12 05:00:00 6.4 -- -- -- -- 0 -- -- 48
2019-06-12 04:00:00 8.6 -- -- -- -- 0 -- -- 44
2019-06-12 03:00:00 11.1 -- -- -- -- 0 -- -- 40
2019-06-12 02:00:00 12.3 -- -- -- -- 0 -- -- 38
2019-06-12 01:00:00 13.5 -- -- -- -- 0 -- -- 37
2019-06-12 00:00:00 14.2 -- -- -- -- 0 -- -- 35
2019-06-11 23:00:00 16.2 -- -- -- -- 0 -- -- 34
2019-06-11 22:00:00 17.7 -- -- -- -- 0 -- -- 32
2019-06-11 21:00:00 20.4 -- -- -- -- 0 -- -- 30
2019-06-11 20:00:00 21.9 -- -- -- -- 0 -- -- 30
2019-06-11 19:00:00 22.2 -- -- -- -- 0 -- -- 30
2019-06-11 18:00:00 20.3 -- -- -- -- 0 -- -- 35
2019-06-11 17:00:00 22.1 -- -- -- -- 0 -- -- 35
2019-06-11 16:00:00 21.8 -- -- -- -- 0 -- -- 39
2019-06-11 15:00:00 19.5 -- -- -- -- 0 -- -- 42
2019-06-11 14:00:00 19.8 -- -- -- -- 0 -- -- 42
2019-06-11 13:00:00 19.5 -- -- -- -- 0 -- -- 43
2019-06-11 12:00:00 19.9 -- -- -- -- 0 -- -- 43
2019-06-11 11:00:00 20.1 -- -- -- -- 0 -- -- 43
2019-06-11 10:00:00 19.1 -- -- -- -- 0 -- -- 46
2019-06-11 09:00:00 17.5 -- -- -- -- 0 -- -- 46
2019-06-11 08:00:00 15.3 -- -- -- -- 0 -- -- 47
2019-06-11 07:00:00 13.3 -- -- -- -- 0 -- -- 45
2019-06-11 06:00:00 13.2 -- -- -- -- 0 -- -- 44
2019-06-11 05:00:00 13.5 -- -- -- -- 0 -- -- 43
2019-06-11 04:00:00 12 -- -- -- -- 0 -- -- 42
2019-06-11 03:00:00 12 -- -- -- -- 0 -- -- 41
2019-06-11 02:00:00 14 -- -- -- -- 0 -- -- 37
2019-06-11 01:00:00 15.2 -- -- -- -- 0 -- -- 35
2019-06-11 00:00:00 18.6 -- -- -- -- 0 -- -- 32
2019-06-10 23:00:00 21.2 -- -- -- -- 0 -- -- 32
2019-06-10 22:00:00 22.6 -- -- -- -- 0 -- -- 34
2019-06-10 21:00:00 25.9 -- -- -- -- 0 -- -- 30
2019-06-10 20:00:00 27.1 -- -- -- -- 0 -- -- 29
2019-06-10 19:00:00 27.3 -- -- -- -- 0 -- -- 29
2019-06-10 18:00:00 27.2 -- -- -- -- 0 -- -- 28
2019-06-10 17:00:00 27 -- -- -- -- 0 -- -- 27
2019-06-10 16:00:00 26.4 -- -- -- -- 0 -- -- 32
2019-06-10 15:00:00 25.6 -- -- -- -- 0 -- -- 34
2019-06-10 14:00:00 24.8 -- -- -- -- 0 -- -- 36
2019-06-10 13:00:00 23.6 -- -- -- -- 0 -- -- 38
2019-06-10 12:00:00 22.7 -- -- -- -- 0 -- -- 41
2019-06-10 11:00:00 21.3 -- -- -- -- 0 -- -- 46
2019-06-10 10:00:00 19.2 -- -- -- -- 0 -- -- 49
2019-06-10 09:00:00 16.3 -- -- -- -- 0 -- -- 53
2019-06-10 08:00:00 13.8 -- -- -- -- 0 -- -- 58
2019-06-10 07:00:00 9.5 -- -- -- -- 0 -- -- 62
2019-06-10 06:00:00 10.4 -- -- -- -- 0 -- -- 58
2019-06-10 05:00:00 11 -- -- -- -- 0 -- -- 53
2019-06-10 04:00:00 13.4 -- -- -- -- 0 -- -- 47
2019-06-10 03:00:00 16.7 -- -- -- -- 0 -- -- 42
2019-06-10 02:00:00 17.8 -- -- -- -- 0 -- -- 39
2019-06-10 01:00:00 18.5 -- -- -- -- 0 -- -- 36
2019-06-10 00:00:00 20.8 -- -- -- -- 0 -- -- 33
2019-06-09 23:00:00 21.7 -- -- -- -- 0 -- -- 30
2019-06-09 22:00:00 22.9 -- -- -- -- 0 -- -- 29
2019-06-09 21:00:00 24.5 -- -- -- -- 0 -- -- 24
2019-06-09 20:00:00 26.7 -- -- -- -- 0 -- -- 24
2019-06-09 19:00:00 28.2 -- -- -- -- 0 -- -- 25
2019-06-09 18:00:00 28 -- -- -- -- 0 -- -- 25
2019-06-09 17:00:00 28.1 -- -- -- -- 0 -- -- 27
2019-06-09 16:00:00 27.6 -- -- -- -- 0 -- -- 29
2019-06-09 15:00:00 27.5 -- -- -- -- 0 -- -- 29
2019-06-09 14:00:00 26.4 -- -- -- -- 0 -- -- 29
2019-06-09 13:00:00 25.6 -- -- -- -- 0 -- -- 32
2019-06-09 12:00:00 24.2 -- -- -- -- 0 -- -- 37
2019-06-09 11:00:00 21.6 -- -- -- -- 0 -- -- 46
2019-06-09 10:00:00 19.3 -- -- -- -- 0 -- -- 53
2019-06-09 09:00:00 18 -- -- -- -- 0 -- -- 58
2019-06-09 08:00:00 14 -- -- -- -- 0 -- -- 71
2019-06-09 07:00:00 10.4 -- -- -- -- 0 -- -- 75
2019-06-09 06:00:00 12.3 -- -- -- -- 0 -- -- 67
2019-06-09 05:00:00 14.9 -- -- -- -- 0 -- -- 62
2019-06-09 04:00:00 16.3 -- -- -- -- 0 -- -- 57
2019-06-09 03:00:00 17.1 -- -- -- -- 0 -- -- 54
2019-06-09 02:00:00 17.9 -- -- -- -- 0 -- -- 53
2019-06-09 01:00:00 18.5 -- -- -- -- 0 -- -- 52
2019-06-09 00:00:00 19.7 -- -- -- -- 0 -- -- 50
2019-06-08 23:00:00 21.4 -- -- -- -- 0 -- -- 46
2019-06-08 22:00:00 24.1 -- -- -- -- 0 -- -- 40
2019-06-08 21:00:00 26.2 -- -- -- -- 0 -- -- 37
2019-06-08 20:00:00 26.7 -- -- -- -- 0 -- -- 36
2019-06-08 19:00:00 27.5 -- -- -- -- 0 -- -- 35
2019-06-08 18:00:00 28.9 -- -- -- -- 0 -- -- 32
2019-06-08 17:00:00 29.7 -- -- -- -- 0 -- -- 29
2019-06-08 16:00:00 29.7 -- -- -- -- 0 -- -- 31
2019-06-08 15:00:00 28.9 -- -- -- -- 0 -- -- 34
2019-06-08 14:00:00 27.2 -- -- -- -- 0 -- -- 36
2019-06-08 13:00:00 26.4 -- -- -- -- 0 -- -- 37
2019-06-08 12:00:00 24.8 -- -- -- -- 0 -- -- 41
2019-06-08 11:00:00 21.8 -- -- -- -- 0 -- -- 40
2019-06-08 10:00:00 17.3 -- -- -- -- 0 -- -- 43
2019-06-08 09:00:00 13.4 -- -- -- -- 0 -- -- 50
2019-06-08 08:00:00 9.7 -- -- -- -- 0 -- -- 55
2019-06-08 07:00:00 6.6 -- -- -- -- 0 -- -- 56
2019-06-08 06:00:00 7.8 -- -- -- -- 0 -- -- 54
2019-06-08 05:00:00 7.1 -- -- -- -- 0 -- -- 51
2019-06-08 04:00:00 7.7 -- -- -- -- 0 -- -- 48
2019-06-08 03:00:00 10.3 -- -- -- -- 0 -- -- 45
2019-06-08 02:00:00 10.6 -- -- -- -- 0 -- -- 43
2019-06-08 01:00:00 12.6 -- -- -- -- 0 -- -- 40
2019-06-08 00:00:00 12.7 -- -- -- -- 0 -- -- 38
2019-06-07 23:00:00 13.6 -- -- -- -- 0 -- -- 34
2019-06-07 22:00:00 17.4 -- -- -- -- 0 -- -- 30
2019-06-07 21:00:00 22.9 -- -- -- -- 0 -- -- 27
2019-06-07 20:00:00 23 -- -- -- -- 0 -- -- 28
2019-06-07 19:00:00 23 -- -- -- -- 0 -- -- 28
2019-06-07 18:00:00 23 -- -- -- -- 0 -- -- 29
2019-06-07 17:00:00 22.6 -- -- -- -- 0 -- -- 29
2019-06-07 16:00:00 21.5 -- -- -- -- 0 -- -- 31
2019-06-07 15:00:00 20.7 -- -- -- -- 0 -- -- 33
2019-06-07 14:00:00 19.5 -- -- -- -- 0 -- -- 34
2019-06-07 13:00:00 18.7 -- -- -- -- 0 -- -- 36
2019-06-07 12:00:00 17.3 -- -- -- -- 0 -- -- 43
2019-06-07 11:00:00 15.2 -- -- -- -- 0 -- -- 50
2019-06-07 10:00:00 14.1 -- -- -- -- 0 -- -- 57
2019-06-07 09:00:00 12.4 -- -- -- -- 0 -- -- 70
2019-06-07 08:00:00 11.4 -- -- -- -- 0 -- -- 76
2019-06-07 07:00:00 11.3 -- -- -- -- 0.2 -- -- 83
2019-06-07 06:00:00 12 -- -- -- -- 0.8 -- -- 86
2019-06-07 05:00:00 13.3 -- -- -- -- 0.2 -- -- 80
2019-06-07 04:00:00 15.9 -- -- -- -- 0 -- -- 70
2019-06-07 03:00:00 16.3 -- -- -- -- 0 -- -- 65
2019-06-07 02:00:00 18.5 -- -- -- -- 0 -- -- 47
2019-06-07 01:00:00 18.6 -- -- -- -- 0 -- -- 42
2019-06-07 00:00:00 18.1 -- -- -- -- 0 -- -- 40
2019-06-06 23:00:00 18.2 -- -- -- -- 0 -- -- 37
2019-06-06 22:00:00 20.3 -- -- -- -- 0 -- -- 34
2019-06-06 21:00:00 23.6 -- -- -- -- 0 -- -- 33
2019-06-06 20:00:00 24.2 -- -- -- -- 0 -- -- 33
2019-06-06 19:00:00 25 -- -- -- -- 0 -- -- 32
2019-06-06 18:00:00 25.8 -- -- -- -- 0 -- -- 31
2019-06-06 17:00:00 25.5 -- -- -- -- 0 -- -- 30
2019-06-06 16:00:00 25.3 -- -- -- -- 0 -- -- 30
2019-06-06 15:00:00 24.2 -- -- -- -- 0 -- -- 31
2019-06-06 14:00:00 23.4 -- -- -- -- 0 -- -- 35
2019-06-06 13:00:00 21.6 -- -- -- -- 0 -- -- 40
2019-06-06 12:00:00 20.2 -- -- -- -- 0 -- -- 43
2019-06-06 11:00:00 18.7 -- -- -- -- 0 -- -- 45
2019-06-06 10:00:00 17.2 -- -- -- -- 0 -- -- 50
2019-06-06 09:00:00 14.3 -- -- -- -- 0 -- -- 55
2019-06-06 08:00:00 10.4 -- -- -- -- 0 -- -- 61
2019-06-06 07:00:00 6.8 -- -- -- -- 0 -- -- 62
2019-06-06 06:00:00 7.3 -- -- -- -- 0 -- -- 59
2019-06-06 05:00:00 8.9 -- -- -- -- 0 -- -- 54
2019-06-06 04:00:00 10.9 -- -- -- -- 0 -- -- 52
2019-06-06 03:00:00 10.9 -- -- -- -- 0 -- -- 51
2019-06-06 02:00:00 10.5 -- -- -- -- 0 -- -- 49
2019-06-06 01:00:00 13.8 -- -- -- -- 0 -- -- 45
2019-06-06 00:00:00 15.7 -- -- -- -- 0 -- -- 44
2019-06-05 23:00:00 16.3 -- -- -- -- 0 -- -- 43
2019-06-05 22:00:00 18.1 -- -- -- -- 0 -- -- 40
2019-06-05 21:00:00 20 -- -- -- -- 0 -- -- 37
2019-06-05 20:00:00 22.4 -- -- -- -- 0 -- -- 34
2019-06-05 19:00:00 21.7 -- -- -- -- 0 -- -- 34
2019-06-05 18:00:00 22.1 -- -- -- -- 0 -- -- 34
2019-06-05 17:00:00 22.7 -- -- -- -- 0 -- -- 34
2019-06-05 16:00:00 21.4 -- -- -- -- 0 -- -- 36
2019-06-05 15:00:00 20.7 -- -- -- -- 0 -- -- 38
2019-06-05 14:00:00 20.3 -- -- -- -- 0 -- -- 40
2019-06-05 13:00:00 19.5 -- -- -- -- 0 -- -- 41
2019-06-05 12:00:00 18.6 -- -- -- -- 0 -- -- 43
2019-06-05 11:00:00 17 -- -- -- -- 0 -- -- 47
2019-06-05 10:00:00 16.1 -- -- -- -- 0 -- -- 51
2019-06-05 09:00:00 14.3 -- -- -- -- 0 -- -- 59
2019-06-05 08:00:00 13.4 -- -- -- -- 0 -- -- 60
2019-06-05 07:00:00 13 -- -- -- -- 0 -- -- 60
2019-06-05 06:00:00 14.6 -- -- -- -- 0 -- -- 57
2019-06-05 05:00:00 15.8 -- -- -- -- 0 -- -- 57
2019-06-05 04:00:00 16.8 -- -- -- -- 0 -- -- 58
2019-06-05 03:00:00 17.1 -- -- -- -- 0 -- -- 57
2019-06-05 02:00:00 18.2 -- -- -- -- 0 -- -- 56
2019-06-05 01:00:00 20 -- -- -- -- 0 -- -- 53
2019-06-05 00:00:00 20.8 -- -- -- -- 0 -- -- 47
2019-06-04 23:00:00 22 -- -- -- -- 0 -- -- 45
2019-06-04 22:00:00 23.3 -- -- -- -- 0 -- -- 43
2019-06-04 21:00:00 24.5 -- -- -- -- 0 -- -- 41
2019-06-04 20:00:00 27 -- -- -- -- 0 -- -- 37
2019-06-04 19:00:00 28.8 -- -- -- -- 0 -- -- 34
2019-06-04 18:00:00 30.3 -- -- -- -- 0 -- -- 35
2019-06-04 17:00:00 30.3 -- -- -- -- 0 -- -- 35
2019-06-04 16:00:00 29.3 -- -- -- -- 0 -- -- 36
2019-06-04 15:00:00 29 -- -- -- -- 0 -- -- 36
2019-06-04 14:00:00 28.6 -- -- -- -- 0 -- -- 39
2019-06-04 13:00:00 27.6 -- -- -- -- 0 -- -- 47
2019-06-04 12:00:00 25.5 -- -- -- -- 0 -- -- 50
2019-06-04 11:00:00 24 -- -- -- -- 0 -- -- 53
2019-06-04 10:00:00 22.8 -- -- -- -- 0 -- -- 58
2019-06-04 09:00:00 21.4 -- -- -- -- 0 -- -- 57
2019-06-04 08:00:00 18.2 -- -- -- -- 0 -- -- 61
2019-06-04 07:00:00 14.4 -- -- -- -- 0 -- -- 59
2019-06-04 06:00:00 14.3 -- -- -- -- 0 -- -- 54
2019-06-04 05:00:00 15 -- -- -- -- 0 -- -- 48
2019-06-04 04:00:00 15.6 -- -- -- -- 0 -- -- 42
2019-06-04 03:00:00 16.9 -- -- -- -- 0 -- -- 39
2019-06-04 02:00:00 17.2 -- -- -- -- 0 -- -- 38
2019-06-04 01:00:00 17.7 -- -- -- -- 0 -- -- 37
2019-06-04 00:00:00 19.3 -- -- -- -- 0 -- -- 33
2019-06-03 23:00:00 22 -- -- -- -- 0 -- -- 31
2019-06-03 22:00:00 26.9 -- -- -- -- 0 -- -- 28
2019-06-03 21:00:00 30.7 -- -- -- -- 0 -- -- 26
2019-06-03 20:00:00 32.8 -- -- -- -- 0 -- -- 25
2019-06-03 19:00:00 33.5 -- -- -- -- 0 -- -- 25
2019-06-03 18:00:00 34.3 -- -- -- -- 0 -- -- 25
2019-06-03 17:00:00 33.8 -- -- -- -- 0 -- -- 25
2019-06-03 16:00:00 33.8 -- -- -- -- 0 -- -- 26
2019-06-03 15:00:00 33.5 -- -- -- -- 0 -- -- 26
2019-06-03 14:00:00 31.8 -- -- -- -- 0 -- -- 28
2019-06-03 13:00:00 31 -- -- -- -- 0 -- -- 29
2019-06-03 12:00:00 29.2 -- -- -- -- 0 -- -- 35
2019-06-03 11:00:00 27.1 -- -- -- -- 0 -- -- 39
2019-06-03 10:00:00 24.2 -- -- -- -- 0 -- -- 41
2019-06-03 09:00:00 21.1 -- -- -- -- 0 -- -- 44
2019-06-03 08:00:00 18.5 -- -- -- -- 0 -- -- 47
2019-06-03 07:00:00 18 -- -- -- -- 0 -- -- 47
2019-06-03 06:00:00 18.8 -- -- -- -- 0 -- -- 44
2019-06-03 05:00:00 19.4 -- -- -- -- 0 -- -- 42
2019-06-03 04:00:00 20.8 -- -- -- -- 0 -- -- 40
2019-06-03 03:00:00 20.8 -- -- -- -- 0 -- -- 41
2019-06-03 02:00:00 20.6 -- -- -- -- 0 -- -- 38
2019-06-03 01:00:00 22.4 -- -- -- -- 0 -- -- 35
2019-06-03 00:00:00 25.2 -- -- -- -- 0 -- -- 33
2019-06-02 23:00:00 25.8 -- -- -- -- 0 -- -- 32
2019-06-02 22:00:00 28.2 -- -- -- -- 0 -- -- 28
2019-06-02 21:00:00 31.6 -- -- -- -- 0 -- -- 25
2019-06-02 20:00:00 33.3 -- -- -- -- 0 -- -- 25
2019-06-02 19:00:00 34.7 -- -- -- -- 0 -- -- 25
2019-06-02 18:00:00 34.6 -- -- -- -- 0 -- -- 25
2019-06-02 17:00:00 34.4 -- -- -- -- 0 -- -- 25
2019-06-02 16:00:00 34 -- -- -- -- 0 -- -- 26
2019-06-02 15:00:00 33.4 -- -- -- -- 0 -- -- 28
2019-06-02 14:00:00 32.1 -- -- -- -- 0 -- -- 30
2019-06-02 13:00:00 30.5 -- -- -- -- 0 -- -- 32
2019-06-02 12:00:00 28.5 -- -- -- -- 0 -- -- 34
2019-06-02 11:00:00 25.6 -- -- -- -- 0 -- -- 37
2019-06-02 10:00:00 22.4 -- -- -- -- 0 -- -- 41
2019-06-02 09:00:00 19.9 -- -- -- -- 0 -- -- 44
2019-06-02 08:00:00 17.9 -- -- -- -- 0 -- -- 47
2019-06-02 07:00:00 16.9 -- -- -- -- 0 -- -- 47
2019-06-02 06:00:00 18.1 -- -- -- -- 0 -- -- 44
2019-06-02 05:00:00 18.7 -- -- -- -- 0 -- -- 45
2019-06-02 04:00:00 19 -- -- -- -- 0 -- -- 43
2019-06-02 03:00:00 21.1 -- -- -- -- 0 -- -- 37
2019-06-02 02:00:00 23.3 -- -- -- -- 0 -- -- 33
2019-06-02 01:00:00 24.9 -- -- -- -- 0 -- -- 32
2019-06-02 00:00:00 25.9 -- -- -- -- 0 -- -- 31
2019-06-01 23:00:00 24.9 -- -- -- -- 0 -- -- 33
2019-06-01 22:00:00 25.4 -- -- -- -- 0 -- -- 29
2019-06-01 21:00:00 32.3 -- -- -- -- 0 -- -- 27
2019-06-01 20:00:00 33.2 -- -- -- -- 0 -- -- 25
2019-06-01 19:00:00 33.3 -- -- -- -- 0 -- -- 25
2019-06-01 18:00:00 33.3 -- -- -- -- 0 -- -- 27
2019-06-01 17:00:00 32.9 -- -- -- -- 0 -- -- 27
2019-06-01 16:00:00 32.7 -- -- -- -- 0 -- -- 29
2019-06-01 15:00:00 31.4 -- -- -- -- 0 -- -- 31
2019-06-01 14:00:00 30.7 -- -- -- -- 0 -- -- 32
2019-06-01 13:00:00 29.7 -- -- -- -- 0 -- -- 34
2019-06-01 12:00:00 27.7 -- -- -- -- 0 -- -- 39
2019-06-01 11:00:00 25.1 -- -- -- -- 0 -- -- 46
2019-06-01 10:00:00 21.9 -- -- -- -- 0 -- -- 49
2019-06-01 09:00:00 20 -- -- -- -- 0 -- -- 53
2019-06-01 08:00:00 16 -- -- -- -- 0 -- -- 61
2019-06-01 07:00:00 14.6 -- -- -- -- 0 -- -- 61
2019-06-01 06:00:00 15.7 -- -- -- -- 0 -- -- 57
2019-06-01 05:00:00 16.6 -- -- -- -- 0 -- -- 54
2019-06-01 04:00:00 18 -- -- -- -- 0 -- -- 51
2019-06-01 03:00:00 19.1 -- -- -- -- 0 -- -- 47
2019-06-01 02:00:00 20.9 -- -- -- -- 0 -- -- 37
2019-06-01 01:00:00 23.2 -- -- -- -- 0 -- -- 33
2019-06-01 00:00:00 24.4 -- -- -- -- 0 -- -- 31
2019-05-31 23:00:00 23.7 -- -- -- -- 0 -- -- 32
2019-05-31 22:00:00 25.3 -- -- -- -- 0 -- -- 29
2019-05-31 21:00:00 30.6 -- -- -- -- 0 -- -- 26
2019-05-31 20:00:00 32.1 -- -- -- -- 0 -- -- 25
2019-05-31 19:00:00 32.5 -- -- -- -- 0 -- -- 25
2019-05-31 18:00:00 31.9 -- -- -- -- 0 -- -- 25
2019-05-31 17:00:00 31.6 -- -- -- -- 0 -- -- 27
2019-05-31 16:00:00 31.5 -- -- -- -- 0 -- -- 28
2019-05-31 15:00:00 30.8 -- -- -- -- 0 -- -- 31
2019-05-31 14:00:00 29.3 -- -- -- -- 0 -- -- 33
2019-05-31 13:00:00 28.5 -- -- -- -- 0 -- -- 36
2019-05-31 12:00:00 26.8 -- -- -- -- 0 -- -- 39
2019-05-31 11:00:00 24.8 -- -- -- -- 0 -- -- 44
2019-05-31 10:00:00 21.3 -- -- -- -- 0 -- -- 49
2019-05-31 09:00:00 18.7 -- -- -- -- 0 -- -- 53
2019-05-31 08:00:00 15.6 -- -- -- -- 0 -- -- 58
2019-05-31 07:00:00 14.4 -- -- -- -- 0 -- -- 58
2019-05-31 06:00:00 13.7 -- -- -- -- 0 -- -- 57
2019-05-31 05:00:00 15.8 -- -- -- -- 0 -- -- 54
2019-05-31 04:00:00 15.9 -- -- -- -- 0 -- -- 50
2019-05-31 03:00:00 15.8 -- -- -- -- 0 -- -- 46
2019-05-31 02:00:00 18.6 -- -- -- -- 0 -- -- 40
2019-05-31 01:00:00 19.8 -- -- -- -- 0 -- -- 37
2019-05-31 00:00:00 21.9 -- -- -- -- 0 -- -- 37
2019-05-30 23:00:00 21 -- -- -- -- 0 -- -- 36
2019-05-30 22:00:00 23.1 -- -- -- -- 0 -- -- 32
2019-05-30 21:00:00 30.4 -- -- -- -- 0 -- -- 27
2019-05-30 20:00:00 30.5 -- -- -- -- 0 -- -- 27
2019-05-30 19:00:00 31 -- -- -- -- 0 -- -- 27
2019-05-30 18:00:00 30.5 -- -- -- -- 0 -- -- 28
2019-05-30 17:00:00 30.2 -- -- -- -- 0 -- -- 28
2019-05-30 16:00:00 29 -- -- -- -- 0 -- -- 31
2019-05-30 15:00:00 28.1 -- -- -- -- 0 -- -- 33
2019-05-30 14:00:00 26.6 -- -- -- -- 0 -- -- 35
2019-05-30 13:00:00 24.8 -- -- -- -- 0 -- -- 39
2019-05-30 12:00:00 22.9 -- -- -- -- 0 -- -- 42
2019-05-30 11:00:00 20.9 -- -- -- -- 0 -- -- 46
2019-05-30 10:00:00 18.8 -- -- -- -- 0 -- -- 50
2019-05-30 09:00:00 16.2 -- -- -- -- 0 -- -- 56
2019-05-30 08:00:00 13.1 -- -- -- -- 0 -- -- 63
2019-05-30 07:00:00 9.6 -- -- -- -- 0 -- -- 64
2019-05-30 06:00:00 12.1 -- -- -- -- 0 -- -- 57
2019-05-30 05:00:00 14 -- -- -- -- 0 -- -- 52
2019-05-30 04:00:00 14.8 -- -- -- -- 0 -- -- 50
2019-05-30 03:00:00 15.9 -- -- -- -- 0 -- -- 47
2019-05-30 02:00:00 16.7 -- -- -- -- 0 -- -- 44
2019-05-30 01:00:00 18.5 -- -- -- -- 0 -- -- 42
2019-05-30 00:00:00 19.1 -- -- -- -- 0 -- -- 43
2019-05-29 23:00:00 21.9 -- -- -- -- 0 -- -- 38
2019-05-29 22:00:00 23.8 -- -- -- -- 0 -- -- 35
2019-05-29 21:00:00 26.8 -- -- -- -- 0 -- -- 33
2019-05-29 20:00:00 27.7 -- -- -- -- 0 -- -- 32
2019-05-29 19:00:00 27.8 -- -- -- -- 0 -- -- 32
2019-05-29 18:00:00 27.5 -- -- -- -- 0 -- -- 32
2019-05-29 17:00:00 27.3 -- -- -- -- 0 -- -- 33
2019-05-29 16:00:00 26.1 -- -- -- -- 0 -- -- 35
2019-05-29 15:00:00 25.4 -- -- -- -- 0 -- -- 36
2019-05-29 14:00:00 24 -- -- -- -- 0 -- -- 38
2019-05-29 13:00:00 22.6 -- -- -- -- 0 -- -- 39
2019-05-29 12:00:00 20.5 -- -- -- -- 0 -- -- 42
2019-05-29 11:00:00 18.7 -- -- -- -- 0 -- -- 45
2019-05-29 10:00:00 17.3 -- -- -- -- 0 -- -- 48
2019-05-29 09:00:00 14.6 -- -- -- -- 0 -- -- 53
2019-05-29 08:00:00 12.8 -- -- -- -- 0 -- -- 57
2019-05-29 07:00:00 9.9 -- -- -- -- 0 -- -- 59
2019-05-29 06:00:00 10.9 -- -- -- -- 0 -- -- 57
2019-05-29 05:00:00 11.3 -- -- -- -- 0 -- -- 54
2019-05-29 04:00:00 12.4 -- -- -- -- 0 -- -- 51
2019-05-29 03:00:00 13.6 -- -- -- -- 0 -- -- 49
2019-05-29 02:00:00 15 -- -- -- -- 0 -- -- 47
2019-05-29 01:00:00 16.5 -- -- -- -- 0 -- -- 42
2019-05-29 00:00:00 18 -- -- -- -- 0 -- -- 36
2019-05-28 23:00:00 19.5 -- -- -- -- 0 -- -- 32
2019-05-28 22:00:00 20.7 -- -- -- -- 0 -- -- 31
2019-05-28 21:00:00 22.9 -- -- -- -- 0 -- -- 30
2019-05-28 20:00:00 25.4 -- -- -- -- 0 -- -- 28
2019-05-28 19:00:00 28 -- -- -- -- 0 -- -- 26
2019-05-28 18:00:00 27.9 -- -- -- -- 0 -- -- 26
2019-05-28 17:00:00 27.8 -- -- -- -- 0 -- -- 26
2019-05-28 16:00:00 27.6 -- -- -- -- 0 -- -- 28
2019-05-28 15:00:00 26.7 -- -- -- -- 0 -- -- 32
2019-05-28 14:00:00 25.5 -- -- -- -- 0 -- -- 31
2019-05-28 13:00:00 23.9 -- -- -- -- 0 -- -- 38
2019-05-28 12:00:00 23 -- -- -- -- 0 -- -- 39
2019-05-28 11:00:00 21.8 -- -- -- -- 0 -- -- 42
2019-05-28 10:00:00 20.5 -- -- -- -- 0 -- -- 46
2019-05-28 09:00:00 17 -- -- -- -- 0 -- -- 57
2019-05-28 08:00:00 13.9 -- -- -- -- 0 -- -- 66
2019-05-28 07:00:00 13.1 -- -- -- -- 0 -- -- 67
2019-05-28 06:00:00 12.4 -- -- -- -- 0 -- -- 66
2019-05-28 05:00:00 14.2 -- -- -- -- 0 -- -- 60
2019-05-28 04:00:00 15.6 -- -- -- -- 0 -- -- 57
2019-05-28 03:00:00 16.8 -- -- -- -- 0 -- -- 54
2019-05-28 02:00:00 18.3 -- -- -- -- 0 -- -- 50
2019-05-28 01:00:00 19.7 -- -- -- -- 0 -- -- 47
2019-05-28 00:00:00 21.5 -- -- -- -- 0 -- -- 43
2019-05-27 23:00:00 22.9 -- -- -- -- 0 -- -- 37
2019-05-27 22:00:00 24.4 -- -- -- -- 0 -- -- 35
2019-05-27 21:00:00 26.8 -- -- -- -- 0 -- -- 32
2019-05-27 20:00:00 29 -- -- -- -- 0 -- -- 31
2019-05-27 19:00:00 30 -- -- -- -- 0 -- -- 29
2019-05-27 18:00:00 31.1 -- -- -- -- 0 -- -- 29
2019-05-27 17:00:00 30.7 -- -- -- -- 0 -- -- 29
2019-05-27 16:00:00 29 -- -- -- -- 0 -- -- 32
2019-05-27 15:00:00 28.1 -- -- -- -- 0 -- -- 35
2019-05-27 14:00:00 27.6 -- -- -- -- 0 -- -- 35
2019-05-27 13:00:00 25.7 -- -- -- -- 0 -- -- 39
2019-05-27 12:00:00 23.9 -- -- -- -- 0 -- -- 42
2019-05-27 11:00:00 21.9 -- -- -- -- 0 -- -- 46
2019-05-27 10:00:00 18.9 -- -- -- -- 0 -- -- 53
2019-05-27 09:00:00 14.7 -- -- -- -- 0 -- -- 64
2019-05-27 08:00:00 11.4 -- -- -- -- 0 -- -- 68
2019-05-27 07:00:00 9.8 -- -- -- -- 0 -- -- 69
2019-05-27 06:00:00 10.8 -- -- -- -- 0 -- -- 65
2019-05-27 05:00:00 11.4 -- -- -- -- 0 -- -- 63
2019-05-27 04:00:00 12.5 -- -- -- -- 0 -- -- 60
2019-05-27 03:00:00 13.6 -- -- -- -- 0 -- -- 54
2019-05-27 02:00:00 14.9 -- -- -- -- 0 -- -- 49
2019-05-27 01:00:00 18 -- -- -- -- 0 -- -- 43
2019-05-27 00:00:00 19.8 -- -- -- -- 0 -- -- 42
2019-05-26 23:00:00 22.4 -- -- -- -- 0 -- -- 38
2019-05-26 22:00:00 24.2 -- -- -- -- 0 -- -- 36
2019-05-26 21:00:00 26.5 -- -- -- -- 0 -- -- 32
2019-05-26 20:00:00 28.1 -- -- -- -- 0 -- -- 30
2019-05-26 19:00:00 28.7 -- -- -- -- 0 -- -- 29
2019-05-26 18:00:00 27.9 -- -- -- -- 0 -- -- 29
2019-05-26 17:00:00 27.2 -- -- -- -- 0 -- -- 30
2019-05-26 16:00:00 26.3 -- -- -- -- 0 -- -- 30
2019-05-26 15:00:00 25.4 -- -- -- -- 0 -- -- 32
2019-05-26 14:00:00 23.8 -- -- -- -- 0 -- -- 35
2019-05-26 13:00:00 21.7 -- -- -- -- 0 -- -- 39
2019-05-26 12:00:00 20.5 -- -- -- -- 0 -- -- 44
2019-05-26 11:00:00 18.8 -- -- -- -- 0 -- -- 47
2019-05-26 10:00:00 16.8 -- -- -- -- 0 -- -- 51
2019-05-26 09:00:00 15.1 -- -- -- -- 0 -- -- 58
2019-05-26 08:00:00 12.3 -- -- -- -- 0 -- -- 67
2019-05-26 07:00:00 8.2 -- -- -- -- 0 -- -- 74
2019-05-26 06:00:00 9.9 -- -- -- -- 0 -- -- 67
2019-05-26 05:00:00 12.4 -- -- -- -- 0 -- -- 64
2019-05-26 04:00:00 12.5 -- -- -- -- 0 -- -- 61
2019-05-26 03:00:00 13.9 -- -- -- -- 0 -- -- 58
2019-05-26 02:00:00 14.6 -- -- -- -- 0 -- -- 54
2019-05-26 01:00:00 16.4 -- -- -- -- 0 -- -- 49
2019-05-26 00:00:00 17.9 -- -- -- -- 0 -- -- 45